sensor_id;sensor_type;location;lat;lon;timestamp;P1;durP1;ratioP1;P2;durP2;ratioP2
17606;SDS011;69222;52.242;20.980;2024-02-04T00:01:34;8.63;;;2.33;;
17606;SDS011;69222;52.242;20.980;2024-02-04T00:04:04;4.40;;;1.60;;
17606;SDS011;69222;52.242;20.980;2024-02-04T00:06:32;6.17;;;1.83;;
17606;SDS011;69222;52.242;20.980;2024-02-04T00:09:00;7.20;;;1.93;;
17606;SDS011;69222;52.242;20.980;2024-02-04T00:11:30;4.77;;;1.70;;
17606;SDS011;69222;52.242;20.980;2024-02-04T00:13:58;6.70;;;1.70;;
17606;SDS011;69222;52.242;20.980;2024-02-04T00:16:26;5.80;;;1.77;;
17606;SDS011;69222;52.242;20.980;2024-02-04T00:18:53;8.77;;;2.63;;
17606;SDS011;69222;52.242;20.980;2024-02-04T00:21:23;5.37;;;1.90;;
17606;SDS011;69222;52.242;20.980;2024-02-04T00:23:51;5.87;;;2.10;;
17606;SDS011;69222;52.242;20.980;2024-02-04T00:26:19;5.73;;;2.07;;
17606;SDS011;69222;52.242;20.980;2024-02-04T00:28:47;9.97;;;2.63;;
17606;SDS011;69222;52.242;20.980;2024-02-04T00:31:15;7.80;;;2.20;;
17606;SDS011;69222;52.242;20.980;2024-02-04T00:33:43;8.57;;;1.83;;
17606;SDS011;69222;52.242;20.980;2024-02-04T00:36:11;9.00;;;2.03;;
17606;SDS011;69222;52.242;20.980;2024-02-04T00:38:40;6.30;;;1.80;;
17606;SDS011;69222;52.242;20.980;2024-02-04T00:41:08;6.47;;;2.40;;
17606;SDS011;69222;52.242;20.980;2024-02-04T00:43:36;8.97;;;2.20;;
17606;SDS011;69222;52.242;20.980;2024-02-04T00:46:04;5.70;;;2.37;;
17606;SDS011;69222;52.242;20.980;2024-02-04T00:48:33;6.53;;;2.47;;
17606;SDS011;69222;52.242;20.980;2024-02-04T00:51:01;4.10;;;2.10;;
17606;SDS011;69222;52.242;20.980;2024-02-04T00:53:29;6.20;;;2.47;;
17606;SDS011;69222;52.242;20.980;2024-02-04T00:56:02;6.40;;;1.80;;
17606;SDS011;69222;52.242;20.980;2024-02-04T00:58:30;4.80;;;2.03;;
17606;SDS011;69222;52.242;20.980;2024-02-04T01:00:58;5.40;;;1.97;;
17606;SDS011;69222;52.242;20.980;2024-02-04T01:03:27;6.20;;;1.77;;
17606;SDS011;69222;52.242;20.980;2024-02-04T01:05:54;5.47;;;2.03;;
17606;SDS011;69222;52.242;20.980;2024-02-04T01:08:23;8.00;;;2.37;;
17606;SDS011;69222;52.242;20.980;2024-02-04T01:10:51;6.63;;;2.37;;
17606;SDS011;69222;52.242;20.980;2024-02-04T01:13:20;8.23;;;1.77;;
17606;SDS011;69222;52.242;20.980;2024-02-04T01:15:48;8.03;;;2.00;;
17606;SDS011;69222;52.242;20.980;2024-02-04T01:18:16;6.20;;;2.30;;
17606;SDS011;69222;52.242;20.980;2024-02-04T01:20:45;5.83;;;1.97;;
17606;SDS011;69222;52.242;20.980;2024-02-04T01:23:13;6.63;;;2.27;;
17606;SDS011;69222;52.242;20.980;2024-02-04T01:25:43;6.27;;;2.07;;
17606;SDS011;69222;52.242;20.980;2024-02-04T01:28:11;6.13;;;1.97;;
17606;SDS011;69222;52.242;20.980;2024-02-04T01:30:40;11.67;;;2.33;;
17606;SDS011;69222;52.242;20.980;2024-02-04T01:33:08;3.67;;;1.90;;
17606;SDS011;69222;52.242;20.980;2024-02-04T01:35:36;5.53;;;1.90;;
17606;SDS011;69222;52.242;20.980;2024-02-04T01:38:04;9.57;;;2.10;;
17606;SDS011;69222;52.242;20.980;2024-02-04T01:40:32;9.70;;;2.23;;
17606;SDS011;69222;52.242;20.980;2024-02-04T01:43:00;6.93;;;2.17;;
17606;SDS011;69222;52.242;20.980;2024-02-04T01:45:28;7.87;;;2.47;;
17606;SDS011;69222;52.242;20.980;2024-02-04T01:47:57;5.50;;;1.93;;
17606;SDS011;69222;52.242;20.980;2024-02-04T01:50:26;8.30;;;2.33;;
17606;SDS011;69222;52.242;20.980;2024-02-04T01:52:53;5.57;;;2.37;;
17606;SDS011;69222;52.242;20.980;2024-02-04T01:55:22;7.53;;;2.10;;
17606;SDS011;69222;52.242;20.980;2024-02-04T01:57:50;9.20;;;2.47;;
17606;SDS011;69222;52.242;20.980;2024-02-04T02:00:18;5.40;;;1.97;;
17606;SDS011;69222;52.242;20.980;2024-02-04T02:02:46;7.73;;;2.60;;
17606;SDS011;69222;52.242;20.980;2024-02-04T02:05:17;5.93;;;1.70;;
17606;SDS011;69222;52.242;20.980;2024-02-04T02:07:45;5.00;;;2.00;;
17606;SDS011;69222;52.242;20.980;2024-02-04T02:10:17;6.57;;;2.20;;
17606;SDS011;69222;52.242;20.980;2024-02-04T02:12:47;6.73;;;2.43;;
17606;SDS011;69222;52.242;20.980;2024-02-04T02:15:18;8.37;;;2.47;;
17606;SDS011;69222;52.242;20.980;2024-02-04T02:17:51;4.17;;;2.20;;
17606;SDS011;69222;52.242;20.980;2024-02-04T02:20:25;6.43;;;2.20;;
17606;SDS011;69222;52.242;20.980;2024-02-04T02:23:03;5.00;;;2.03;;
17606;SDS011;69222;52.242;20.980;2024-02-04T02:25:36;6.80;;;2.00;;
17606;SDS011;69222;52.242;20.980;2024-02-04T02:28:04;7.27;;;2.10;;
17606;SDS011;69222;52.242;20.980;2024-02-04T02:30:32;8.77;;;2.03;;
17606;SDS011;69222;52.242;20.980;2024-02-04T02:33:00;6.73;;;1.90;;
17606;SDS011;69222;52.242;20.980;2024-02-04T02:35:28;6.43;;;2.17;;
17606;SDS011;69222;52.242;20.980;2024-02-04T02:37:58;6.50;;;1.80;;
17606;SDS011;69222;52.242;20.980;2024-02-04T02:40:49;7.70;;;2.30;;
17606;SDS011;69222;52.242;20.980;2024-02-04T02:43:22;6.13;;;1.90;;
17606;SDS011;69222;52.242;20.980;2024-02-04T02:45:50;6.13;;;1.87;;
17606;SDS011;69222;52.242;20.980;2024-02-04T02:48:19;5.40;;;1.90;;
17606;SDS011;69222;52.242;20.980;2024-02-04T02:50:47;6.73;;;1.80;;
17606;SDS011;69222;52.242;20.980;2024-02-04T02:53:15;4.23;;;1.63;;
17606;SDS011;69222;52.242;20.980;2024-02-04T02:55:47;5.13;;;2.00;;
17606;SDS011;69222;52.242;20.980;2024-02-04T02:58:15;8.13;;;2.00;;
17606;SDS011;69222;52.242;20.980;2024-02-04T03:00:43;7.13;;;2.00;;
17606;SDS011;69222;52.242;20.980;2024-02-04T03:03:12;4.87;;;2.10;;
17606;SDS011;69222;52.242;20.980;2024-02-04T03:05:40;5.80;;;1.83;;
17606;SDS011;69222;52.242;20.980;2024-02-04T03:08:08;5.70;;;2.23;;
17606;SDS011;69222;52.242;20.980;2024-02-04T03:10:35;3.87;;;1.57;;
17606;SDS011;69222;52.242;20.980;2024-02-04T03:13:05;5.87;;;1.40;;
17606;SDS011;69222;52.242;20.980;2024-02-04T03:15:33;5.00;;;1.90;;
17606;SDS011;69222;52.242;20.980;2024-02-04T03:18:01;8.27;;;1.80;;
17606;SDS011;69222;52.242;20.980;2024-02-04T03:20:29;6.67;;;2.27;;
17606;SDS011;69222;52.242;20.980;2024-02-04T03:22:57;4.53;;;2.27;;
17606;SDS011;69222;52.242;20.980;2024-02-04T03:25:25;5.20;;;1.60;;
17606;SDS011;69222;52.242;20.980;2024-02-04T03:27:55;8.27;;;2.10;;
17606;SDS011;69222;52.242;20.980;2024-02-04T03:30:24;4.33;;;1.63;;
17606;SDS011;69222;52.242;20.980;2024-02-04T03:32:52;6.23;;;1.70;;
17606;SDS011;69222;52.242;20.980;2024-02-04T03:35:20;5.07;;;1.90;;
17606;SDS011;69222;52.242;20.980;2024-02-04T03:37:48;10.13;;;2.03;;
17606;SDS011;69222;52.242;20.980;2024-02-04T03:40:16;4.70;;;1.93;;
17606;SDS011;69222;52.242;20.980;2024-02-04T03:42:45;5.13;;;1.73;;
17606;SDS011;69222;52.242;20.980;2024-02-04T03:45:13;7.20;;;1.87;;
17606;SDS011;69222;52.242;20.980;2024-02-04T03:47:43;4.07;;;1.60;;
17606;SDS011;69222;52.242;20.980;2024-02-04T03:50:11;6.77;;;2.03;;
17606;SDS011;69222;52.242;20.980;2024-02-04T03:52:39;5.80;;;1.67;;
17606;SDS011;69222;52.242;20.980;2024-02-04T03:55:07;7.97;;;2.00;;
17606;SDS011;69222;52.242;20.980;2024-02-04T03:57:35;3.50;;;1.73;;
17606;SDS011;69222;52.242;20.980;2024-02-04T04:00:03;4.37;;;1.50;;
17606;SDS011;69222;52.242;20.980;2024-02-04T04:02:32;4.73;;;1.60;;
17606;SDS011;69222;52.242;20.980;2024-02-04T04:05:01;6.50;;;2.03;;
17606;SDS011;69222;52.242;20.980;2024-02-04T04:07:29;6.37;;;1.50;;
17606;SDS011;69222;52.242;20.980;2024-02-04T04:09:57;6.73;;;1.60;;
17606;SDS011;69222;52.242;20.980;2024-02-04T04:12:25;4.43;;;1.50;;
17606;SDS011;69222;52.242;20.980;2024-02-04T04:14:53;3.83;;;1.30;;
17606;SDS011;69222;52.242;20.980;2024-02-04T04:17:21;6.50;;;2.20;;
17606;SDS011;69222;52.242;20.980;2024-02-04T04:19:49;4.70;;;1.50;;
17606;SDS011;69222;52.242;20.980;2024-02-04T04:22:18;4.97;;;1.50;;
17606;SDS011;69222;52.242;20.980;2024-02-04T04:24:46;5.67;;;1.70;;
17606;SDS011;69222;52.242;20.980;2024-02-04T04:27:14;4.03;;;1.40;;
17606;SDS011;69222;52.242;20.980;2024-02-04T04:29:42;3.77;;;1.30;;
17606;SDS011;69222;52.242;20.980;2024-02-04T04:32:10;6.87;;;1.70;;
17606;SDS011;69222;52.242;20.980;2024-02-04T04:34:38;7.53;;;1.80;;
17606;SDS011;69222;52.242;20.980;2024-02-04T04:37:06;8.73;;;1.70;;
17606;SDS011;69222;52.242;20.980;2024-02-04T04:39:35;6.70;;;1.77;;
17606;SDS011;69222;52.242;20.980;2024-02-04T04:42:03;5.70;;;1.50;;
17606;SDS011;69222;52.242;20.980;2024-02-04T04:44:31;3.50;;;1.03;;
17606;SDS011;69222;52.242;20.980;2024-02-04T04:46:59;5.03;;;1.07;;
17606;SDS011;69222;52.242;20.980;2024-02-04T04:49:27;6.20;;;1.60;;
17606;SDS011;69222;52.242;20.980;2024-02-04T04:51:55;4.93;;;1.10;;
17606;SDS011;69222;52.242;20.980;2024-02-04T04:54:23;4.93;;;1.10;;
17606;SDS011;69222;52.242;20.980;2024-02-04T04:56:52;4.37;;;1.13;;
17606;SDS011;69222;52.242;20.980;2024-02-04T04:59:20;3.57;;;1.13;;
17606;SDS011;69222;52.242;20.980;2024-02-04T05:01:48;2.83;;;1.10;;
17606;SDS011;69222;52.242;20.980;2024-02-04T05:04:16;2.33;;;1.30;;
17606;SDS011;69222;52.242;20.980;2024-02-04T05:06:45;7.27;;;1.80;;
17606;SDS011;69222;52.242;20.980;2024-02-04T05:09:13;5.17;;;1.63;;
17606;SDS011;69222;52.242;20.980;2024-02-04T05:11:42;4.00;;;1.23;;
17606;SDS011;69222;52.242;20.980;2024-02-04T05:14:11;6.07;;;1.50;;
17606;SDS011;69222;52.242;20.980;2024-02-04T05:16:39;6.03;;;1.77;;
17606;SDS011;69222;52.242;20.980;2024-02-04T05:19:10;2.70;;;1.40;;
17606;SDS011;69222;52.242;20.980;2024-02-04T05:21:39;3.13;;;1.07;;
17606;SDS011;69222;52.242;20.980;2024-02-04T05:24:07;5.80;;;1.43;;
17606;SDS011;69222;52.242;20.980;2024-02-04T05:26:35;3.10;;;1.00;;
17606;SDS011;69222;52.242;20.980;2024-02-04T05:29:02;2.80;;;0.90;;
17606;SDS011;69222;52.242;20.980;2024-02-04T05:31:32;6.03;;;1.00;;
17606;SDS011;69222;52.242;20.980;2024-02-04T05:34:04;3.37;;;1.10;;
17606;SDS011;69222;52.242;20.980;2024-02-04T05:36:33;5.53;;;1.23;;
17606;SDS011;69222;52.242;20.980;2024-02-04T05:39:08;4.83;;;1.23;;
17606;SDS011;69222;52.242;20.980;2024-02-04T05:41:37;2.70;;;0.90;;
17606;SDS011;69222;52.242;20.980;2024-02-04T05:44:05;4.60;;;1.60;;
17606;SDS011;69222;52.242;20.980;2024-02-04T05:46:36;6.17;;;2.10;;
17606;SDS011;69222;52.242;20.980;2024-02-04T05:49:05;3.23;;;1.17;;
17606;SDS011;69222;52.242;20.980;2024-02-04T05:51:37;4.10;;;1.40;;
17606;SDS011;69222;52.242;20.980;2024-02-04T05:54:05;2.97;;;1.40;;
17606;SDS011;69222;52.242;20.980;2024-02-04T05:56:34;5.27;;;1.90;;
17606;SDS011;69222;52.242;20.980;2024-02-04T05:59:02;5.20;;;1.40;;
17606;SDS011;69222;52.242;20.980;2024-02-04T06:01:30;3.20;;;1.03;;
17606;SDS011;69222;52.242;20.980;2024-02-04T06:04:00;8.10;;;2.00;;
17606;SDS011;69222;52.242;20.980;2024-02-04T06:06:28;8.47;;;2.20;;
17606;SDS011;69222;52.242;20.980;2024-02-04T06:08:56;6.07;;;1.90;;
17606;SDS011;69222;52.242;20.980;2024-02-04T06:11:24;9.60;;;2.33;;
17606;SDS011;69222;52.242;20.980;2024-02-04T06:13:52;6.67;;;1.60;;
17606;SDS011;69222;52.242;20.980;2024-02-04T06:16:20;6.03;;;1.97;;
17606;SDS011;69222;52.242;20.980;2024-02-04T06:18:48;7.73;;;1.60;;
17606;SDS011;69222;52.242;20.980;2024-02-04T06:21:18;4.83;;;1.53;;
17606;SDS011;69222;52.242;20.980;2024-02-04T06:23:45;6.17;;;1.87;;
17606;SDS011;69222;52.242;20.980;2024-02-04T06:26:13;4.53;;;1.53;;
17606;SDS011;69222;52.242;20.980;2024-02-04T06:28:41;7.80;;;1.70;;
17606;SDS011;69222;52.242;20.980;2024-02-04T06:31:12;4.33;;;1.40;;
17606;SDS011;69222;52.242;20.980;2024-02-04T06:33:40;5.37;;;2.03;;
17606;SDS011;69222;52.242;20.980;2024-02-04T06:36:08;5.27;;;1.80;;
17606;SDS011;69222;52.242;20.980;2024-02-04T06:38:39;9.30;;;1.83;;
17606;SDS011;69222;52.242;20.980;2024-02-04T06:41:06;6.40;;;1.70;;
17606;SDS011;69222;52.242;20.980;2024-02-04T06:43:36;10.20;;;1.83;;
17606;SDS011;69222;52.242;20.980;2024-02-04T06:46:04;6.77;;;2.03;;
17606;SDS011;69222;52.242;20.980;2024-02-04T06:48:32;3.90;;;2.00;;
17606;SDS011;69222;52.242;20.980;2024-02-04T06:51:00;5.40;;;1.50;;
17606;SDS011;69222;52.242;20.980;2024-02-04T06:53:28;7.13;;;2.17;;
17606;SDS011;69222;52.242;20.980;2024-02-04T06:55:58;6.40;;;2.13;;
17606;SDS011;69222;52.242;20.980;2024-02-04T06:58:25;6.60;;;1.90;;
17606;SDS011;69222;52.242;20.980;2024-02-04T07:00:54;9.77;;;2.30;;
17606;SDS011;69222;52.242;20.980;2024-02-04T07:03:22;8.83;;;2.23;;
17606;SDS011;69222;52.242;20.980;2024-02-04T07:05:50;10.37;;;2.40;;
17606;SDS011;69222;52.242;20.980;2024-02-04T07:08:18;7.03;;;1.97;;
17606;SDS011;69222;52.242;20.980;2024-02-04T07:10:46;11.07;;;2.20;;
17606;SDS011;69222;52.242;20.980;2024-02-04T07:13:15;7.33;;;1.63;;
17606;SDS011;69222;52.242;20.980;2024-02-04T07:15:43;5.37;;;1.60;;
17606;SDS011;69222;52.242;20.980;2024-02-04T07:18:11;5.70;;;1.73;;
17606;SDS011;69222;52.242;20.980;2024-02-04T07:20:39;7.80;;;2.17;;
17606;SDS011;69222;52.242;20.980;2024-02-04T07:23:07;7.03;;;1.90;;
17606;SDS011;69222;52.242;20.980;2024-02-04T07:25:35;7.47;;;1.90;;
17606;SDS011;69222;52.242;20.980;2024-02-04T07:28:03;8.17;;;2.07;;
17606;SDS011;69222;52.242;20.980;2024-02-04T07:30:32;4.80;;;1.60;;
17606;SDS011;69222;52.242;20.980;2024-02-04T07:33:00;5.23;;;1.80;;
17606;SDS011;69222;52.242;20.980;2024-02-04T07:35:28;6.77;;;1.87;;
17606;SDS011;69222;52.242;20.980;2024-02-04T07:37:56;4.93;;;1.70;;
17606;SDS011;69222;52.242;20.980;2024-02-04T07:40:24;5.73;;;1.87;;
17606;SDS011;69222;52.242;20.980;2024-02-04T07:42:53;12.87;;;2.53;;
17606;SDS011;69222;52.242;20.980;2024-02-04T07:45:21;6.83;;;2.00;;
17606;SDS011;69222;52.242;20.980;2024-02-04T07:47:50;4.73;;;1.53;;
17606;SDS011;69222;52.242;20.980;2024-02-04T07:50:18;4.27;;;2.00;;
17606;SDS011;69222;52.242;20.980;2024-02-04T07:52:46;10.80;;;2.40;;
17606;SDS011;69222;52.242;20.980;2024-02-04T07:55:14;10.97;;;2.40;;
17606;SDS011;69222;52.242;20.980;2024-02-04T07:57:42;7.37;;;2.03;;
17606;SDS011;69222;52.242;20.980;2024-02-04T08:00:10;7.20;;;1.80;;
17606;SDS011;69222;52.242;20.980;2024-02-04T08:02:39;5.43;;;1.70;;
17606;SDS011;69222;52.242;20.980;2024-02-04T08:05:08;3.20;;;1.60;;
17606;SDS011;69222;52.242;20.980;2024-02-04T08:07:36;7.90;;;1.93;;
17606;SDS011;69222;52.242;20.980;2024-02-04T08:10:04;8.73;;;1.70;;
17606;SDS011;69222;52.242;20.980;2024-02-04T08:12:34;5.60;;;2.13;;
17606;SDS011;69222;52.242;20.980;2024-02-04T08:15:02;7.27;;;2.53;;
17606;SDS011;69222;52.242;20.980;2024-02-04T08:17:31;8.67;;;2.33;;
17606;SDS011;69222;52.242;20.980;2024-02-04T08:20:00;5.07;;;1.73;;
17606;SDS011;69222;52.242;20.980;2024-02-04T08:22:32;5.67;;;2.00;;
17606;SDS011;69222;52.242;20.980;2024-02-04T08:25:00;7.23;;;2.43;;
17606;SDS011;69222;52.242;20.980;2024-02-04T08:27:28;7.00;;;1.90;;
17606;SDS011;69222;52.242;20.980;2024-02-04T08:29:56;4.67;;;1.87;;
17606;SDS011;69222;52.242;20.980;2024-02-04T08:32:24;6.97;;;1.60;;
17606;SDS011;69222;52.242;20.980;2024-02-04T08:34:52;5.43;;;1.90;;
17606;SDS011;69222;52.242;20.980;2024-02-04T08:37:20;6.10;;;2.00;;
17606;SDS011;69222;52.242;20.980;2024-02-04T08:39:52;5.53;;;2.23;;
17606;SDS011;69222;52.242;20.980;2024-02-04T08:42:20;6.33;;;2.03;;
17606;SDS011;69222;52.242;20.980;2024-02-04T08:44:48;11.93;;;2.53;;
17606;SDS011;69222;52.242;20.980;2024-02-04T08:47:16;5.67;;;1.93;;
17606;SDS011;69222;52.242;20.980;2024-02-04T08:49:44;4.60;;;1.87;;
17606;SDS011;69222;52.242;20.980;2024-02-04T08:52:12;6.03;;;1.93;;
17606;SDS011;69222;52.242;20.980;2024-02-04T08:54:40;10.30;;;2.33;;
17606;SDS011;69222;52.242;20.980;2024-02-04T08:57:10;9.47;;;2.20;;
17606;SDS011;69222;52.242;20.980;2024-02-04T08:59:37;7.63;;;2.40;;
17606;SDS011;69222;52.242;20.980;2024-02-04T09:02:05;8.90;;;1.97;;
17606;SDS011;69222;52.242;20.980;2024-02-04T09:04:36;6.97;;;2.00;;
17606;SDS011;69222;52.242;20.980;2024-02-04T09:07:07;7.13;;;1.77;;
17606;SDS011;69222;52.242;20.980;2024-02-04T09:09:35;5.17;;;1.50;;
17606;SDS011;69222;52.242;20.980;2024-02-04T09:12:04;6.47;;;1.77;;
17606;SDS011;69222;52.242;20.980;2024-02-04T09:14:33;5.77;;;1.90;;
17606;SDS011;69222;52.242;20.980;2024-02-04T09:17:02;6.60;;;2.00;;
17606;SDS011;69222;52.242;20.980;2024-02-04T09:19:30;6.03;;;2.60;;
17606;SDS011;69222;52.242;20.980;2024-02-04T09:21:58;8.53;;;2.17;;
17606;SDS011;69222;52.242;20.980;2024-02-04T09:24:29;5.97;;;2.20;;
17606;SDS011;69222;52.242;20.980;2024-02-04T09:26:57;12.10;;;2.90;;
17606;SDS011;69222;52.242;20.980;2024-02-04T09:29:25;4.87;;;2.00;;
17606;SDS011;69222;52.242;20.980;2024-02-04T09:31:54;9.20;;;2.27;;
17606;SDS011;69222;52.242;20.980;2024-02-04T09:34:23;8.13;;;2.53;;
17606;SDS011;69222;52.242;20.980;2024-02-04T09:36:51;9.60;;;2.50;;
17606;SDS011;69222;52.242;20.980;2024-02-04T09:39:20;6.90;;;2.07;;
17606;SDS011;69222;52.242;20.980;2024-02-04T09:41:48;9.90;;;2.27;;
17606;SDS011;69222;52.242;20.980;2024-02-04T09:44:16;7.97;;;2.23;;
17606;SDS011;69222;52.242;20.980;2024-02-04T09:46:45;5.53;;;2.30;;
17606;SDS011;69222;52.242;20.980;2024-02-04T09:49:15;7.10;;;2.00;;
17606;SDS011;69222;52.242;20.980;2024-02-04T09:51:43;8.07;;;2.40;;
17606;SDS011;69222;52.242;20.980;2024-02-04T09:54:11;10.83;;;2.33;;
17606;SDS011;69222;52.242;20.980;2024-02-04T09:56:43;7.30;;;2.70;;
17606;SDS011;69222;52.242;20.980;2024-02-04T09:59:12;7.10;;;2.30;;
17606;SDS011;69222;52.242;20.980;2024-02-04T10:01:40;7.20;;;2.10;;
17606;SDS011;69222;52.242;20.980;2024-02-04T10:04:09;7.53;;;2.20;;
17606;SDS011;69222;52.242;20.980;2024-02-04T10:06:39;7.77;;;2.20;;
17606;SDS011;69222;52.242;20.980;2024-02-04T10:09:07;7.50;;;2.93;;
17606;SDS011;69222;52.242;20.980;2024-02-04T10:11:35;9.43;;;2.20;;
17606;SDS011;69222;52.242;20.980;2024-02-04T10:14:03;7.13;;;2.10;;
17606;SDS011;69222;52.242;20.980;2024-02-04T10:16:35;9.37;;;2.50;;
17606;SDS011;69222;52.242;20.980;2024-02-04T10:19:03;6.40;;;2.10;;
17606;SDS011;69222;52.242;20.980;2024-02-04T10:21:31;9.07;;;2.60;;
17606;SDS011;69222;52.242;20.980;2024-02-04T10:24:00;7.47;;;2.40;;
17606;SDS011;69222;52.242;20.980;2024-02-04T10:26:28;10.43;;;2.13;;
17606;SDS011;69222;52.242;20.980;2024-02-04T10:28:58;7.93;;;2.53;;
17606;SDS011;69222;52.242;20.980;2024-02-04T10:31:26;9.07;;;2.20;;
17606;SDS011;69222;52.242;20.980;2024-02-04T10:33:54;10.23;;;2.80;;
17606;SDS011;69222;52.242;20.980;2024-02-04T10:36:22;7.97;;;2.30;;
17606;SDS011;69222;52.242;20.980;2024-02-04T10:38:50;7.87;;;2.33;;
17606;SDS011;69222;52.242;20.980;2024-02-04T10:41:19;10.03;;;2.23;;
17606;SDS011;69222;52.242;20.980;2024-02-04T10:43:48;11.33;;;3.23;;
17606;SDS011;69222;52.242;20.980;2024-02-04T10:46:17;7.97;;;2.77;;
17606;SDS011;69222;52.242;20.980;2024-02-04T10:48:48;11.90;;;3.33;;
17606;SDS011;69222;52.242;20.980;2024-02-04T10:51:23;8.00;;;2.37;;
17606;SDS011;69222;52.242;20.980;2024-02-04T10:53:53;7.47;;;1.80;;
17606;SDS011;69222;52.242;20.980;2024-02-04T10:56:25;5.97;;;1.83;;
17606;SDS011;69222;52.242;20.980;2024-02-04T10:58:57;8.33;;;2.60;;
17606;SDS011;69222;52.242;20.980;2024-02-04T11:01:27;10.17;;;2.43;;
17606;SDS011;69222;52.242;20.980;2024-02-04T11:03:55;5.27;;;2.00;;
17606;SDS011;69222;52.242;20.980;2024-02-04T11:06:25;7.90;;;2.37;;
17606;SDS011;69222;52.242;20.980;2024-02-04T11:08:54;7.90;;;2.77;;
17606;SDS011;69222;52.242;20.980;2024-02-04T11:11:26;8.90;;;3.20;;
17606;SDS011;69222;52.242;20.980;2024-02-04T11:13:54;7.07;;;2.60;;
17606;SDS011;69222;52.242;20.980;2024-02-04T11:16:31;10.97;;;2.73;;
17606;SDS011;69222;52.242;20.980;2024-02-04T11:19:17;9.40;;;2.60;;
17606;SDS011;69222;52.242;20.980;2024-02-04T11:22:09;6.63;;;2.43;;
17606;SDS011;69222;52.242;20.980;2024-02-04T11:24:51;11.73;;;2.60;;
17606;SDS011;69222;52.242;20.980;2024-02-04T11:27:28;6.23;;;2.23;;
17606;SDS011;69222;52.242;20.980;2024-02-04T11:29:57;8.73;;;2.33;;
17606;SDS011;69222;52.242;20.980;2024-02-04T11:32:25;7.30;;;2.80;;
17606;SDS011;69222;52.242;20.980;2024-02-04T11:34:53;7.80;;;3.17;;
17606;SDS011;69222;52.242;20.980;2024-02-04T11:37:22;9.13;;;2.67;;
17606;SDS011;69222;52.242;20.980;2024-02-04T11:39:52;6.20;;;2.20;;
17606;SDS011;69222;52.242;20.980;2024-02-04T11:42:22;4.33;;;2.10;;
17606;SDS011;69222;52.242;20.980;2024-02-04T11:45:05;6.90;;;2.27;;
17606;SDS011;69222;52.242;20.980;2024-02-04T11:47:34;8.93;;;2.60;;
17606;SDS011;69222;52.242;20.980;2024-02-04T11:50:03;6.43;;;2.50;;
17606;SDS011;69222;52.242;20.980;2024-02-04T11:52:31;7.87;;;2.90;;
17606;SDS011;69222;52.242;20.980;2024-02-04T11:55:00;7.33;;;2.57;;
17606;SDS011;69222;52.242;20.980;2024-02-04T11:57:28;8.43;;;2.37;;
17606;SDS011;69222;52.242;20.980;2024-02-04T11:59:58;9.43;;;3.00;;
17606;SDS011;69222;52.242;20.980;2024-02-04T12:02:28;10.67;;;2.70;;
17606;SDS011;69222;52.242;20.980;2024-02-04T12:04:56;9.20;;;2.83;;
17606;SDS011;69222;52.242;20.980;2024-02-04T12:07:24;9.83;;;3.13;;
17606;SDS011;69222;52.242;20.980;2024-02-04T12:09:52;9.10;;;3.30;;
17606;SDS011;69222;52.242;20.980;2024-02-04T12:12:20;11.60;;;3.50;;
17606;SDS011;69222;52.242;20.980;2024-02-04T12:14:48;7.87;;;3.43;;
17606;SDS011;69222;52.242;20.980;2024-02-04T12:17:19;10.67;;;3.40;;
17606;SDS011;69222;52.242;20.980;2024-02-04T12:19:47;13.00;;;2.87;;
17606;SDS011;69222;52.242;20.980;2024-02-04T12:22:16;6.83;;;2.43;;
17606;SDS011;69222;52.242;20.980;2024-02-04T12:24:44;8.60;;;3.37;;
17606;SDS011;69222;52.242;20.980;2024-02-04T12:27:15;12.83;;;3.33;;
17606;SDS011;69222;52.242;20.980;2024-02-04T12:29:43;5.73;;;3.07;;
17606;SDS011;69222;52.242;20.980;2024-02-04T12:32:13;7.23;;;3.20;;
17606;SDS011;69222;52.242;20.980;2024-02-04T12:34:46;10.67;;;3.60;;
17606;SDS011;69222;52.242;20.980;2024-02-04T12:37:14;8.53;;;3.23;;
17606;SDS011;69222;52.242;20.980;2024-02-04T12:39:42;7.87;;;2.60;;
17606;SDS011;69222;52.242;20.980;2024-02-04T12:42:10;6.53;;;2.87;;
17606;SDS011;69222;52.242;20.980;2024-02-04T12:44:38;6.93;;;2.87;;
17606;SDS011;69222;52.242;20.980;2024-02-04T12:47:05;5.57;;;2.90;;
17606;SDS011;69222;52.242;20.980;2024-02-04T12:49:33;7.23;;;2.50;;
17606;SDS011;69222;52.242;20.980;2024-02-04T12:52:06;9.03;;;3.73;;
17606;SDS011;69222;52.242;20.980;2024-02-04T12:54:41;10.83;;;3.37;;
17606;SDS011;69222;52.242;20.980;2024-02-04T12:57:10;12.33;;;3.10;;
17606;SDS011;69222;52.242;20.980;2024-02-04T12:59:38;8.57;;;3.30;;
17606;SDS011;69222;52.242;20.980;2024-02-04T13:02:07;8.27;;;3.23;;
17606;SDS011;69222;52.242;20.980;2024-02-04T13:04:36;10.83;;;3.57;;
17606;SDS011;69222;52.242;20.980;2024-02-04T13:07:07;7.97;;;3.30;;
17606;SDS011;69222;52.242;20.980;2024-02-04T13:09:37;7.07;;;3.17;;
17606;SDS011;69222;52.242;20.980;2024-02-04T13:12:06;9.67;;;2.97;;
17606;SDS011;69222;52.242;20.980;2024-02-04T13:14:36;8.13;;;2.97;;
17606;SDS011;69222;52.242;20.980;2024-02-04T13:17:04;11.60;;;3.40;;
17606;SDS011;69222;52.242;20.980;2024-02-04T13:19:32;7.43;;;2.83;;
17606;SDS011;69222;52.242;20.980;2024-02-04T13:22:02;6.40;;;2.93;;
17606;SDS011;69222;52.242;20.980;2024-02-04T13:24:32;7.07;;;2.90;;
17606;SDS011;69222;52.242;20.980;2024-02-04T13:27:01;5.57;;;2.70;;
17606;SDS011;69222;52.242;20.980;2024-02-04T13:29:30;9.30;;;3.23;;
17606;SDS011;69222;52.242;20.980;2024-02-04T13:31:58;10.77;;;3.60;;
17606;SDS011;69222;52.242;20.980;2024-02-04T13:34:26;5.77;;;2.83;;
17606;SDS011;69222;52.242;20.980;2024-02-04T13:36:54;8.40;;;3.37;;
17606;SDS011;69222;52.242;20.980;2024-02-04T13:39:22;8.27;;;2.73;;
17606;SDS011;69222;52.242;20.980;2024-02-04T13:41:51;7.17;;;2.73;;
17606;SDS011;69222;52.242;20.980;2024-02-04T13:44:19;5.57;;;2.83;;
17606;SDS011;69222;52.242;20.980;2024-02-04T13:46:47;6.73;;;2.80;;
17606;SDS011;69222;52.242;20.980;2024-02-04T13:49:15;8.53;;;2.70;;
17606;SDS011;69222;52.242;20.980;2024-02-04T13:51:43;5.50;;;2.50;;
17606;SDS011;69222;52.242;20.980;2024-02-04T13:54:11;5.43;;;2.70;;
17606;SDS011;69222;52.242;20.980;2024-02-04T13:56:44;7.80;;;2.77;;
17606;SDS011;69222;52.242;20.980;2024-02-04T13:59:13;6.83;;;2.50;;
17606;SDS011;69222;52.242;20.980;2024-02-04T14:01:41;6.30;;;2.60;;
17606;SDS011;69222;52.242;20.980;2024-02-04T14:04:10;5.53;;;2.40;;
17606;SDS011;69222;52.242;20.980;2024-02-04T14:06:38;7.17;;;2.37;;
17606;SDS011;69222;52.242;20.980;2024-02-04T14:09:06;6.23;;;3.00;;
17606;SDS011;69222;52.242;20.980;2024-02-04T14:11:34;5.87;;;2.63;;
17606;SDS011;69222;52.242;20.980;2024-02-04T14:14:02;7.37;;;2.40;;
17606;SDS011;69222;52.242;20.980;2024-02-04T14:16:32;7.70;;;2.30;;
17606;SDS011;69222;52.242;20.980;2024-02-04T14:19:00;3.97;;;2.10;;
17606;SDS011;69222;52.242;20.980;2024-02-04T14:21:28;6.37;;;2.70;;
17606;SDS011;69222;52.242;20.980;2024-02-04T14:23:56;7.77;;;2.50;;
17606;SDS011;69222;52.242;20.980;2024-02-04T14:26:24;5.30;;;2.20;;
17606;SDS011;69222;52.242;20.980;2024-02-04T14:28:52;4.93;;;2.20;;
17606;SDS011;69222;52.242;20.980;2024-02-04T14:31:19;6.77;;;2.37;;
17606;SDS011;69222;52.242;20.980;2024-02-04T14:33:49;7.03;;;2.30;;
17606;SDS011;69222;52.242;20.980;2024-02-04T14:36:17;7.67;;;2.10;;
17606;SDS011;69222;52.242;20.980;2024-02-04T14:38:46;6.20;;;2.50;;
17606;SDS011;69222;52.242;20.980;2024-02-04T14:41:14;7.10;;;2.40;;
17606;SDS011;69222;52.242;20.980;2024-02-04T14:43:41;9.13;;;2.90;;